sensor_id;sensor_type;location;lat;lon;timestamp;temperature;humidity
75010;DHT22;63564;46.840;18.336;2023-04-01T00:02:13;9.11;98.56
75010;DHT22;63564;46.840;18.336;2023-04-01T00:05:14;9.11;98.64
75010;DHT22;63564;46.840;18.336;2023-04-01T00:08:14;9.00;98.70
75010;DHT22;63564;46.840;18.336;2023-04-01T00:11:16;8.96;98.78
75010;DHT22;63564;46.840;18.336;2023-04-01T00:14:17;9.01;98.68
75010;DHT22;63564;46.840;18.336;2023-04-01T00:17:17;9.00;98.93
75010;DHT22;63564;46.840;18.336;2023-04-01T00:20:17;8.92;99.02
75010;DHT22;63564;46.840;18.336;2023-04-01T00:23:19;8.89;99.09
75010;DHT22;63564;46.840;18.336;2023-04-01T00:26:20;8.87;99.10
75010;DHT22;63564;46.840;18.336;2023-04-01T00:29:21;8.86;98.95
75010;DHT22;63564;46.840;18.336;2023-04-01T00:32:24;8.87;98.99
75010;DHT22;63564;46.840;18.336;2023-04-01T00:35:25;8.79;98.98
75010;DHT22;63564;46.840;18.336;2023-04-01T00:38:25;8.77;98.67
75010;DHT22;63564;46.840;18.336;2023-04-01T00:41:26;8.84;98.55
75010;DHT22;63564;46.840;18.336;2023-04-01T00:44:32;8.80;98.06
75010;DHT22;63564;46.840;18.336;2023-04-01T00:47:33;8.79;98.05
75010;DHT22;63564;46.840;18.336;2023-04-01T00:50:34;8.79;97.90
75010;DHT22;63564;46.840;18.336;2023-04-01T00:53:40;8.79;98.06
75010;DHT22;63564;46.840;18.336;2023-04-01T00:56:50;8.79;97.92
75010;DHT22;63564;46.840;18.336;2023-04-01T00:59:55;8.68;98.10
75010;DHT22;63564;46.840;18.336;2023-04-01T01:02:56;8.75;97.89
75010;DHT22;63564;46.840;18.336;2023-04-01T01:16:39;8.73;97.48
75010;DHT22;63564;46.840;18.336;2023-04-01T01:33:11;8.68;97.11
75010;DHT22;63564;46.840;18.336;2023-04-01T01:36:14;8.68;97.11
75010;DHT22;63564;46.840;18.336;2023-04-01T01:39:16;8.72;96.72
75010;DHT22;63564;46.840;18.336;2023-04-01T01:42:18;8.72;96.56
75010;DHT22;63564;46.840;18.336;2023-04-01T01:45:21;8.72;96.32
75010;DHT22;63564;46.840;18.336;2023-04-01T01:48:24;8.71;96.83
75010;DHT22;63564;46.840;18.336;2023-04-01T01:51:27;8.69;96.94
75010;DHT22;63564;46.840;18.336;2023-04-01T01:54:27;8.65;96.83
75010;DHT22;63564;46.840;18.336;2023-04-01T01:57:31;8.61;97.05
75010;DHT22;63564;46.840;18.336;2023-04-01T02:00:33;8.61;96.95
75010;DHT22;63564;46.840;18.336;2023-04-01T02:03:36;8.62;97.31
75010;DHT22;63564;46.840;18.336;2023-04-01T02:06:40;8.58;97.44
75010;DHT22;63564;46.840;18.336;2023-04-01T02:09:42;8.58;97.50
75010;DHT22;63564;46.840;18.336;2023-04-01T02:12:44;8.58;97.41
75010;DHT22;63564;46.840;18.336;2023-04-01T02:15:48;8.54;97.47
75010;DHT22;63564;46.840;18.336;2023-04-01T02:18:51;8.49;97.47
75010;DHT22;63564;46.840;18.336;2023-04-01T02:21:59;8.48;97.61
75010;DHT22;63564;46.840;18.336;2023-04-01T02:25:05;8.42;97.67
75010;DHT22;63564;46.840;18.336;2023-04-01T02:28:07;8.42;97.65
75010;DHT22;63564;46.840;18.336;2023-04-01T02:31:10;8.28;97.57
75010;DHT22;63564;46.840;18.336;2023-04-01T02:34:12;8.38;97.40
75010;DHT22;63564;46.840;18.336;2023-04-01T02:37:14;8.41;97.53
75010;DHT22;63564;46.840;18.336;2023-04-01T02:40:16;8.30;97.47
75010;DHT22;63564;46.840;18.336;2023-04-01T02:43:16;8.34;97.55
75010;DHT22;63564;46.840;18.336;2023-04-01T02:46:17;8.28;97.69
75010;DHT22;63564;46.840;18.336;2023-04-01T02:49:17;8.23;97.86
75010;DHT22;63564;46.840;18.336;2023-04-01T02:52:18;8.25;98.03
75010;DHT22;63564;46.840;18.336;2023-04-01T02:55:18;8.34;97.75
75010;DHT22;63564;46.840;18.336;2023-04-01T02:58:19;8.33;97.63
75010;DHT22;63564;46.840;18.336;2023-04-01T03:01:20;8.25;97.92
75010;DHT22;63564;46.840;18.336;2023-04-01T03:04:21;8.35;98.03
75010;DHT22;63564;46.840;18.336;2023-04-01T03:07:21;8.37;97.89
75010;DHT22;63564;46.840;18.336;2023-04-01T03:10:22;8.45;97.94
75010;DHT22;63564;46.840;18.336;2023-04-01T03:13:22;8.37;98.03
75010;DHT22;63564;46.840;18.336;2023-04-01T03:16:23;8.40;98.22
75010;DHT22;63564;46.840;18.336;2023-04-01T03:19:23;8.52;98.07
75010;DHT22;63564;46.840;18.336;2023-04-01T03:22:24;8.56;97.75
75010;DHT22;63564;46.840;18.336;2023-04-01T03:25:24;8.49;97.74
75010;DHT22;63564;46.840;18.336;2023-04-01T03:28:25;8.45;98.17
75010;DHT22;63564;46.840;18.336;2023-04-01T03:31:25;8.45;98.24
75010;DHT22;63564;46.840;18.336;2023-04-01T03:34:26;8.45;98.24
75010;DHT22;63564;46.840;18.336;2023-04-01T03:37:26;8.46;98.27
75010;DHT22;63564;46.840;18.336;2023-04-01T03:40:27;8.46;98.28
75010;DHT22;63564;46.840;18.336;2023-04-01T03:43:27;8.51;98.28
75010;DHT22;63564;46.840;18.336;2023-04-01T03:46:27;8.52;98.11
75010;DHT22;63564;46.840;18.336;2023-04-01T03:49:28;8.52;98.05
75010;DHT22;63564;46.840;18.336;2023-04-01T03:52:28;8.44;98.11
75010;DHT22;63564;46.840;18.336;2023-04-01T03:55:29;8.42;98.45
75010;DHT22;63564;46.840;18.336;2023-04-01T03:58:29;8.45;98.35
75010;DHT22;63564;46.840;18.336;2023-04-01T04:01:30;8.52;98.32
75010;DHT22;63564;46.840;18.336;2023-04-01T04:04:30;8.54;98.14
75010;DHT22;63564;46.840;18.336;2023-04-01T04:07:34;8.45;98.25
75010;DHT22;63564;46.840;18.336;2023-04-01T04:10:35;8.45;98.38
75010;DHT22;63564;46.840;18.336;2023-04-01T04:13:35;8.49;98.25
75010;DHT22;63564;46.840;18.336;2023-04-01T04:16:36;8.28;98.36
75010;DHT22;63564;46.840;18.336;2023-04-01T04:19:37;8.14;99.08
75010;DHT22;63564;46.840;18.336;2023-04-01T04:22:37;8.25;99.25
75010;DHT22;63564;46.840;18.336;2023-04-01T04:25:38;8.31;98.88
75010;DHT22;63564;46.840;18.336;2023-04-01T04:28:38;8.33;98.83
75010;DHT22;63564;46.840;18.336;2023-04-01T04:31:39;8.40;98.71
75010;DHT22;63564;46.840;18.336;2023-04-01T04:34:39;8.40;98.42
75010;DHT22;63564;46.840;18.336;2023-04-01T04:37:40;8.35;98.22
75010;DHT22;63564;46.840;18.336;2023-04-01T04:40:41;8.18;98.47
75010;DHT22;63564;46.840;18.336;2023-04-01T04:43:42;8.21;98.74
75010;DHT22;63564;46.840;18.336;2023-04-01T04:46:42;8.20;98.68
75010;DHT22;63564;46.840;18.336;2023-04-01T04:49:43;8.17;98.59
75010;DHT22;63564;46.840;18.336;2023-04-01T04:52:43;8.13;98.57
75010;DHT22;63564;46.840;18.336;2023-04-01T04:55:48;8.06;98.15
75010;DHT22;63564;46.840;18.336;2023-04-01T04:58:49;7.91;98.57
75010;DHT22;63564;46.840;18.336;2023-04-01T05:01:49;7.94;99.27
75010;DHT22;63564;46.840;18.336;2023-04-01T05:04:49;7.97;99.33
75010;DHT22;63564;46.840;18.336;2023-04-01T05:07:50;8.01;99.23
75010;DHT22;63564;46.840;18.336;2023-04-01T05:10:50;8.07;99.08
75010;DHT22;63564;46.840;18.336;2023-04-01T05:13:51;8.14;98.88
75010;DHT22;63564;46.840;18.336;2023-04-01T05:16:51;8.15;98.71
75010;DHT22;63564;46.840;18.336;2023-04-01T05:19:52;8.18;98.76
75010;DHT22;63564;46.840;18.336;2023-04-01T05:22:56;8.11;98.44
75010;DHT22;63564;46.840;18.336;2023-04-01T05:25:56;8.21;98.57
75010;DHT22;63564;46.840;18.336;2023-04-01T05:28:57;8.31;98.03
75010;DHT22;63564;46.840;18.336;2023-04-01T05:31:57;8.24;98.12
75010;DHT22;63564;46.840;18.336;2023-04-01T05:34:58;8.28;98.15
75010;DHT22;63564;46.840;18.336;2023-04-01T05:37:58;8.31;97.97
75010;DHT22;63564;46.840;18.336;2023-04-01T05:41:00;8.37;97.78
75010;DHT22;63564;46.840;18.336;2023-04-01T05:44:00;8.42;97.67
75010;DHT22;63564;46.840;18.336;2023-04-01T05:47:02;8.46;97.51
75010;DHT22;63564;46.840;18.336;2023-04-01T05:50:02;8.51;97.41
75010;DHT22;63564;46.840;18.336;2023-04-01T05:53:03;8.55;97.76
75010;DHT22;63564;46.840;18.336;2023-04-01T05:56:03;8.56;97.78
75010;DHT22;63564;46.840;18.336;2023-04-01T05:59:04;8.66;97.79
75010;DHT22;63564;46.840;18.336;2023-04-01T06:02:04;8.80;97.68
75010;DHT22;63564;46.840;18.336;2023-04-01T06:05:15;8.92;97.74
75010;DHT22;63564;46.840;18.336;2023-04-01T06:08:18;8.92;97.93
75010;DHT22;63564;46.840;18.336;2023-04-01T06:11:44;9.06;97.63
75010;DHT22;63564;46.840;18.336;2023-04-01T06:21:37;9.34;97.15
75010;DHT22;63564;46.840;18.336;2023-04-01T06:41:51;9.58;95.98
75010;DHT22;63564;46.840;18.336;2023-04-01T06:51:43;9.82;95.34
75010;DHT22;63564;46.840;18.336;2023-04-01T06:54:52;9.76;95.51
75010;DHT22;63564;46.840;18.336;2023-04-01T06:57:57;9.97;95.29
75010;DHT22;63564;46.840;18.336;2023-04-01T07:01:03;10.12;94.27
75010;DHT22;63564;46.840;18.336;2023-04-01T07:04:11;10.21;94.26
75010;DHT22;63564;46.840;18.336;2023-04-01T07:10:25;10.48;92.76
75010;DHT22;63564;46.840;18.336;2023-04-01T07:13:47;10.55;92.72
75010;DHT22;63564;46.840;18.336;2023-04-01T07:17:05;10.67;91.54
75010;DHT22;63564;46.840;18.336;2023-04-01T07:20:20;10.81;92.35
75010;DHT22;63564;46.840;18.336;2023-04-01T07:23:24;10.82;90.78
75010;DHT22;63564;46.840;18.336;2023-04-01T07:26:25;10.91;91.50
75010;DHT22;63564;46.840;18.336;2023-04-01T07:29:26;10.91;90.16
75010;DHT22;63564;46.840;18.336;2023-04-01T07:36:08;11.00;91.55
75010;DHT22;63564;46.840;18.336;2023-04-01T07:50:04;11.48;90.87
75010;DHT22;63564;46.840;18.336;2023-04-01T07:56:19;11.78;88.58
75010;DHT22;63564;46.840;18.336;2023-04-01T07:59:31;11.84;86.21
75010;DHT22;63564;46.840;18.336;2023-04-01T08:11:57;12.29;84.16
75010;DHT22;63564;46.840;18.336;2023-04-01T08:15:18;12.29;82.08
75010;DHT22;63564;46.840;18.336;2023-04-01T08:21:54;12.50;81.31
75010;DHT22;63564;46.840;18.336;2023-04-01T08:24:58;12.49;78.55
75010;DHT22;63564;46.840;18.336;2023-04-01T08:28:10;12.59;79.49
75010;DHT22;63564;46.840;18.336;2023-04-01T08:31:25;12.73;78.09
75010;DHT22;63564;46.840;18.336;2023-04-01T08:34:36;12.76;77.57
75010;DHT22;63564;46.840;18.336;2023-04-01T08:37:40;12.81;76.52
75010;DHT22;63564;46.840;18.336;2023-04-01T09:00:45;13.92;69.59
75010;DHT22;63564;46.840;18.336;2023-04-01T09:17:14;14.36;66.99
75010;DHT22;63564;46.840;18.336;2023-04-01T09:27:29;14.77;66.60
75010;DHT22;63564;46.840;18.336;2023-04-01T09:30:41;14.63;62.47
75010;DHT22;63564;46.840;18.336;2023-04-01T09:34:25;14.77;62.77
75010;DHT22;63564;46.840;18.336;2023-04-01T09:41:31;14.86;63.31
75010;DHT22;63564;46.840;18.336;2023-04-01T09:48:01;14.84;61.79
75010;DHT22;63564;46.840;18.336;2023-04-01T10:12:04;14.93;60.06
75010;DHT22;63564;46.840;18.336;2023-04-01T10:32:24;13.98;64.88
75010;DHT22;63564;46.840;18.336;2023-04-01T10:42:53;14.00;63.91
75010;DHT22;63564;46.840;18.336;2023-04-01T10:59:28;14.57;60.22
75010;DHT22;63564;46.840;18.336;2023-04-01T11:16:36;14.50;63.29
75010;DHT22;63564;46.840;18.336;2023-04-01T11:34:48;15.28;61.47
75010;DHT22;63564;46.840;18.336;2023-04-01T11:44:26;15.82;56.19
75010;DHT22;63564;46.840;18.336;2023-04-01T12:14:38;16.35;57.05
75010;DHT22;63564;46.840;18.336;2023-04-01T12:18:32;16.25;53.48
75010;DHT22;63564;46.840;18.336;2023-04-01T12:37:54;16.32;53.64
75010;DHT22;63564;46.840;18.336;2023-04-01T13:17:58;19.53;43.70
75010;DHT22;63564;46.840;18.336;2023-04-01T13:21:18;19.60;43.26
75010;DHT22;63564;46.840;18.336;2023-04-01T13:24:31;18.88;45.28
75010;DHT22;63564;46.840;18.336;2023-04-01T13:27:43;19.78;44.92
75010;DHT22;63564;46.840;18.336;2023-04-01T13:31:09;19.81;41.16
75010;DHT22;63564;46.840;18.336;2023-04-01T13:34:35;19.40;43.90
75010;DHT22;63564;46.840;18.336;2023-04-01T13:37:54;18.53;45.73
75010;DHT22;63564;46.840;18.336;2023-04-01T13:44:22;17.93;47.16
75010;DHT22;63564;46.840;18.336;2023-04-01T14:05:00;21.18;44.31
75010;DHT22;63564;46.840;18.336;2023-04-01T14:14:51;19.02;51.06
75010;DHT22;63564;46.840;18.336;2023-04-01T14:21:30;20.26;45.02
75010;DHT22;63564;46.840;18.336;2023-04-01T14:24:50;21.16;45.70
75010;DHT22;63564;46.840;18.336;2023-04-01T14:35:05;20.21;46.89
75010;DHT22;63564;46.840;18.336;2023-04-01T14:38:26;19.88;46.35
75010;DHT22;63564;46.840;18.336;2023-04-01T14:41:47;18.78;47.44
75010;DHT22;63564;46.840;18.336;2023-04-01T14:45:29;18.29;49.22
75010;DHT22;63564;46.840;18.336;2023-04-01T14:51:43;16.40;52.91
75010;DHT22;63564;46.840;18.336;2023-04-01T14:54:46;16.44;55.22
75010;DHT22;63564;46.840;18.336;2023-04-01T14:58:21;16.55;54.66
75010;DHT22;63564;46.840;18.336;2023-04-01T15:04:49;17.47;51.89
75010;DHT22;63564;46.840;18.336;2023-04-01T15:11:23;17.19;53.99
75010;DHT22;63564;46.840;18.336;2023-04-01T15:24:36;17.21;51.86
75010;DHT22;63564;46.840;18.336;2023-04-01T15:27:47;17.24;51.03
75010;DHT22;63564;46.840;18.336;2023-04-01T15:31:16;16.93;52.19
75010;DHT22;63564;46.840;18.336;2023-04-01T15:38:05;16.47;54.04
75010;DHT22;63564;46.840;18.336;2023-04-01T15:44:42;15.01;56.84
75010;DHT22;63564;46.840;18.336;2023-04-01T15:47:52;14.95;57.72
75010;DHT22;63564;46.840;18.336;2023-04-01T15:54:32;15.90;55.32
75010;DHT22;63564;46.840;18.336;2023-04-01T16:04:36;16.59;53.99
75010;DHT22;63564;46.840;18.336;2023-04-01T16:08:23;16.72;54.61
75010;DHT22;63564;46.840;18.336;2023-04-01T16:11:47;16.28;54.31
75010;DHT22;63564;46.840;18.336;2023-04-01T16:22:02;16.51;53.17
75010;DHT22;63564;46.840;18.336;2023-04-01T16:25:22;16.68;53.17
75010;DHT22;63564;46.840;18.336;2023-04-01T16:29:12;16.11;53.66
75010;DHT22;63564;46.840;18.336;2023-04-01T16:32:15;15.10;57.81
75010;DHT22;63564;46.840;18.336;2023-04-01T16:35:23;14.67;59.16
75010;DHT22;63564;46.840;18.336;2023-04-01T16:38:38;14.26;60.81
75010;DHT22;63564;46.840;18.336;2023-04-01T16:48:15;13.39;64.63
75010;DHT22;63564;46.840;18.336;2023-04-01T16:51:17;13.40;65.37
75010;DHT22;63564;46.840;18.336;2023-04-01T16:57:43;13.16;66.58
75010;DHT22;63564;46.840;18.336;2023-04-01T17:00:50;12.87;68.00
75010;DHT22;63564;46.840;18.336;2023-04-01T17:03:57;12.85;67.67
75010;DHT22;63564;46.840;18.336;2023-04-01T17:16:41;12.22;70.29
75010;DHT22;63564;46.840;18.336;2023-04-01T17:27:00;11.74;71.58
75010;DHT22;63564;46.840;18.336;2023-04-01T17:39:54;11.37;73.35
75010;DHT22;63564;46.840;18.336;2023-04-01T17:50:22;11.10;74.07
75010;DHT22;63564;46.840;18.336;2023-04-01T17:56:43;11.03;73.61
75010;DHT22;63564;46.840;18.336;2023-04-01T18:03:17;10.88;74.11
75010;DHT22;63564;46.840;18.336;2023-04-01T18:19:58;10.33;75.89
75010;DHT22;63564;46.840;18.336;2023-04-01T18:22:41;10.16;76.00
75010;DHT22;63564;46.840;18.336;2023-04-01T18:25:46;10.12;76.58
75010;DHT22;63564;46.840;18.336;2023-04-01T18:28:54;10.05;76.47
75010;DHT22;63564;46.840;18.336;2023-04-01T18:35:46;9.92;76.60
75010;DHT22;63564;46.840;18.336;2023-04-01T18:42:38;9.76;76.91
75010;DHT22;63564;46.840;18.336;2023-04-01T18:45:56;9.82;76.44
75010;DHT22;63564;46.840;18.336;2023-04-01T18:49:29;9.78;76.35
75010;DHT22;63564;46.840;18.336;2023-04-01T18:52:36;9.71;76.57
75010;DHT22;63564;46.840;18.336;2023-04-01T18:55:40;9.65;76.92
75010;DHT22;63564;46.840;18.336;2023-04-01T18:58:54;9.62;77.35
75010;DHT22;63564;46.840;18.336;2023-04-01T19:02:14;9.55;77.72
75010;DHT22;63564;46.840;18.336;2023-04-01T19:05:19;9.57;78.39
75010;DHT22;63564;46.840;18.336;2023-04-01T19:11:50;9.41;78.32
75010;DHT22;63564;46.840;18.336;2023-04-01T19:15:29;9.37;78.40
75010;DHT22;63564;46.840;18.336;2023-04-01T19:21:52;9.26;79.00
75010;DHT22;63564;46.840;18.336;2023-04-01T19:25:21;9.21;78.82
75010;DHT22;63564;46.840;18.336;2023-04-01T19:44:41;8.94;80.88
75010;DHT22;63564;46.840;18.336;2023-04-01T19:51:37;8.84;81.55
75010;DHT22;63564;46.840;18.336;2023-04-01T19:55:03;8.82;81.87
75010;DHT22;63564;46.840;18.336;2023-04-01T19:58:23;8.72;82.15
75010;DHT22;63564;46.840;18.336;2023-04-01T20:04:51;8.61;82.61
75010;DHT22;63564;46.840;18.336;2023-04-01T20:08:03;8.59;82.79
75010;DHT22;63564;46.840;18.336;2023-04-01T20:11:21;8.52;82.52
75010;DHT22;63564;46.840;18.336;2023-04-01T20:14:54;8.51;83.17
75010;DHT22;63564;46.840;18.336;2023-04-01T20:17:59;8.38;83.05
75010;DHT22;63564;46.840;18.336;2023-04-01T20:24:45;8.31;83.20
75010;DHT22;63564;46.840;18.336;2023-04-01T20:31:16;8.40;82.68
75010;DHT22;63564;46.840;18.336;2023-04-01T20:45:27;8.31;83.15
75010;DHT22;63564;46.840;18.336;2023-04-01T20:51:38;8.41;82.46
75010;DHT22;63564;46.840;18.336;2023-04-01T20:58:11;8.58;81.50
75010;DHT22;63564;46.840;18.336;2023-04-01T21:04:28;8.76;80.55
75010;DHT22;63564;46.840;18.336;2023-04-01T21:11:13;8.96;79.63
75010;DHT22;63564;46.840;18.336;2023-04-01T21:15:07;8.99;79.55
75010;DHT22;63564;46.840;18.336;2023-04-01T21:22:01;8.96;79.28
75010;DHT22;63564;46.840;18.336;2023-04-01T21:28:25;9.10;78.98
75010;DHT22;63564;46.840;18.336;2023-04-01T21:34:57;9.09;78.95
75010;DHT22;63564;46.840;18.336;2023-04-01T21:38:17;9.07;79.57
75010;DHT22;63564;46.840;18.336;2023-04-01T21:51:02;9.23;79.26
75010;DHT22;63564;46.840;18.336;2023-04-01T22:05:24;8.97;80.47
75010;DHT22;63564;46.840;18.336;2023-04-01T22:15:11;9.21;79.48
75010;DHT22;63564;46.840;18.336;2023-04-01T22:21:43;9.51;78.27
75010;DHT22;63564;46.840;18.336;2023-04-01T22:28:29;9.81;77.23
75010;DHT22;63564;46.840;18.336;2023-04-01T22:31:51;9.86;77.46
75010;DHT22;63564;46.840;18.336;2023-04-01T22:48:07;10.27;76.46
75010;DHT22;63564;46.840;18.336;2023-04-01T22:51:24;10.38;75.81
75010;DHT22;63564;46.840;18.336;2023-04-01T22:54:48;10.40;75.48
75010;DHT22;63564;46.840;18.336;2023-04-01T22:57:57;10.47;75.22
75010;DHT22;63564;46.840;18.336;2023-04-01T23:01:06;10.44;75.77
75010;DHT22;63564;46.840;18.336;2023-04-01T23:04:10;10.31;76.22
75010;DHT22;63564;46.840;18.336;2023-04-01T23:07:45;10.18;76.78
75010;DHT22;63564;46.840;18.336;2023-04-01T23:11:06;10.12;76.80
75010;DHT22;63564;46.840;18.336;2023-04-01T23:27:37;9.85;79.14
75010;DHT22;63564;46.840;18.336;2023-04-01T23:33:40;9.72;79.96
75010;DHT22;63564;46.840;18.336;2023-04-01T23:36:52;9.71;79.97
75010;DHT22;63564;46.840;18.336;2023-04-01T23:39:57;9.72;80.55
75010;DHT22;63564;46.840;18.336;2023-04-01T23:42:58;9.75;80.35
75010;DHT22;63564;46.840;18.336;2023-04-01T23:46:01;9.74;80.40
75010;DHT22;63564;46.840;18.336;2023-04-01T23:49:06;9.72;80.51
75010;DHT22;63564;46.840;18.336;2023-04-01T23:52:14;9.69;80.61
75010;DHT22;63564;46.840;18.336;2023-04-01T23:55:30;9.68;80.74
75010;DHT22;63564;46.840;18.336;2023-04-01T23:58:42;9.68;81.07
